Weather observations for the past three days for
St. Paul Island, St. Paul Island Airport
Imperial (Metric)
Date Time (akdt) Wind (mph) Vis. (mi.) Weather Sky Cond. Temperature (ºF) Relative Humidity Wind Chill (°F) Heat Index (°F) Pressure Precipitation (in)
Air Dwpt 6 hour altimeter (in) sea level (mb) 1 hr 3 hr 6 hr
Max. Min.
10 07:53 NW 5 10.00 Overcast OVC026 28.9 23 78% 25 29.59 1002.1
10 06:53 N 3 10.00 Overcast OVC025 28.9 24.1 82% 29.6 1002.4
10 05:53 NW 6 10.00 Overcast OVC026 28.9 25 85% 23 29.61 1002.7
10 04:53 W 5 10.00 Overcast OVC028 28.9 24.1 82% 25 29.62 1003.2
10 03:53 NW 7 10.00 Overcast OVC025 30 24.1 30.9 28.9 79% 24 29.64 1003.8
10 02:53 NW 7 10.00 Overcast OVC030 30 25 82% 24 29.66 1004.3
10 01:53 W 6 10.00 Overcast OVC028 30 24.1 79% 25 29.66 1004.4
10 00:53 NW 8 9.00 Light Snow OVC028 30 25 82% 23 29.66 1004.6
09 23:53 N 8 10.00 Overcast FEW015 FEW021 OVC030 30 27 88% 23 29.67 1004.7
09 22:53 NW 9 10.00 Overcast SCT016 SCT023 OVC030 30.9 26.1 82% 24 29.67 1004.6
09 21:53 NW 15 10.00 Overcast SCT018 SCT027 OVC035 32 25 33.1 30 75% 22 29.67 1004.8
09 20:53 NW 10 10.00 Overcast OVC028 30.9 26.1 82% 23 29.68 1005.0
09 19:53 NW 16 G 22 5.00 Light Snow FEW012 BKN019 OVC031 30.9 25 79% 21 29.68 1005.2
09 18:53 NW 17 10.00 Overcast FEW019 OVC030 32 23 69% 22 29.69 1005.4
09 17:53 NW 14 G 23 10.00 Overcast OVC021 30.9 23 72% 21 29.7 1005.8
09 16:53 N 16 10.00 Overcast OVC022 30.9 21 67% 21 29.71 1006.1
09 15:53 NW 17 10.00 Overcast OVC019 30.9 21 30.9 28 67% 20 29.72 1006.6
09 14:53 N 18 10.00 Overcast OVC014 30.9 21.9 69% 20 29.73 1006.8
09 13:53 N 13 G 23 10.00 Overcast OVC015 30 21.9 72% 21 29.74 1007.2
09 12:53 N 17 10.00 Overcast OVC015 28.9 21 72% 18 29.75 1007.6
09 11:53 NW 14 10.00 Overcast OVC015 28.9 21.9 75% 19 29.76 1007.7
09 10:53 N 14 10.00 Overcast OVC015 28.9 23 78% 19 29.76 1008.0
09 09:53 N 15 10.00 Overcast OVC015 28.9 21 30 28 72% 18 29.77 1008.1
09 08:53 N 13 10.00 Overcast OVC016 28.9 21.9 75% 19 29.76 1008.0
09 07:53 N 14 10.00 Overcast OVC018 28 21 75% 18 29.77 1008.2
09 06:53 N 13 10.00 Overcast OVC020 28.9 21 72% 19 29.78 1008.4
09 05:53 N 12 10.00 Overcast OVC021 28.9 21 72% 20 29.78 1008.7
09 04:53 N 7 10.00 Overcast OVC022 30 21 69% 24 29.8 1009.0
09 03:53 N 10 10.00 Overcast OVC020 30 21 30 28 69% 22 29.81 1009.4
09 02:53 N 7 10.00 Overcast OVC020 28.9 21.9 75% 23 29.82 1009.8
09 01:53 N 6 10.00 Overcast OVC018 28.9 21.9 75% 23 29.82 1010.0
09 00:53 N 10 10.00 Overcast OVC017 28.9 21.9 75% 20 29.83 1010.2
08 23:53 N 9 10.00 Overcast OVC016 28.9 21.9 75% 21 29.84 1010.5
08 22:53 NE 13 10.00 Overcast OVC015 28 21.9 78% 18 29.85 1010.8
08 21:53 NE 13 10.00 Overcast OVC016 30 21.9 35.1 28.9 72% 21 29.85 1010.8
08 20:53 N 18 G 24 10.00 Overcast OVC015 32 23 69% 21 29.85 1010.8
08 19:53 NE 16 10.00 Partly Cloudy SCT016 32 24.1 73% 22 29.85 1011.0
08 18:53 NE 17 10.00 Mostly Cloudy BKN017 34 24.1 67% 24 29.86 1011.3
08 17:53 NE 17 G 24 10.00 Overcast OVC017 34 23 64% 24 29.88 1011.8
08 16:53 NE 20 G 26 10.00 Overcast OVC015 33.1 24.1 70% 22 29.89 1012.3
08 15:53 NE 17 10.00 Overcast OVC014 34 24.1 35.1 30.9 67% 24 29.91 1012.9
08 14:53 NE 16 10.00 Overcast OVC014 33.1 25 72% 23 29.92 1013.4
08 13:53 NE 16 10.00 Overcast OVC014 33.1 25 72% 23 29.93 1013.5
08 12:53 NE 20 G 25 10.00 Overcast OVC012 32 25 75% 21 29.93 1013.7
08 11:53 NE 15 6.00 Light Snow OVC014 32 26.1 79% 22 29.94 1013.8
08 10:53 NE 14 8.00 Overcast OVC016 30.9 26.1 82% 21 29.94 1014.1
08 09:53 NE 14 10.00 Overcast OVC017 30.9 24.1 30.9 28.9 76% 21 29.95 1014.4
08 08:53 NE 10 10.00 Overcast OVC017 30 23 75% 22 29.96 1014.8
08 07:53 NE 12 10.00 Overcast OVC017 30 23 75% 21 29.96 1014.7
08 06:53 NE 9 10.00 Overcast OVC017 30 24.1 79% 22 29.97 1014.9
08 05:53 NE 12 10.00 Overcast OVC018 30.9 25 79% 22 29.98 1015.2
08 04:53 N 5 10.00 Overcast FEW016 OVC022 28.9 26.1 89% 25 29.98 1015.4
08 03:53 NE 5 10.00 Overcast OVC024 30.9 21.9 32 30.9 69% 27 29.99 1015.6
08 02:53 E 8 10.00 Overcast OVC021 30.9 23 72% 24 30 1016.0
08 01:53 E 12 10.00 Overcast OVC018 30.9 24.1 76% 22 30 1016.1
08 00:53 E 10 10.00 Overcast OVC023 30.9 23 72% 23 30.01 1016.4
07 23:53 NE 10 10.00 Overcast OVC019 30.9 24.1 76% 23 30.01 1016.4
07 22:53 E 13 10.00 Overcast OVC018 32 24.1 73% 23 30.01 1016.4
07 21:53 E 12 10.00 Overcast OVC019 32 24.1 34 32 73% 24 30.01 1016.4
07 20:53 NE 12 10.00 Overcast OVC020 32 24.1 73% 24 30.01 1016.4
07 19:53 E 12 10.00 Overcast OVC021 33.1 24.1 70% 25 30.02 1016.5
07 18:53 E 9 10.00 Overcast OVC017 33.1 24.1 70% 26 30.02 1016.6
07 17:53 E 15 10.00 Overcast OVC021 33.1 25 72% 24 30.02 1016.7
07 16:53 E 13 10.00 Overcast OVC013 33.1 26.1 75% 25 30.03 1017.1
07 15:53 E 15 10.00 Overcast OVC017 34 26.1 34 30.9 73% 25 30.04 1017.3
07 14:53 E 15 10.00 Overcast OVC017 34 26.1 73% 25 30.04 1017.2
07 13:53 E 13 5.00 Overcast with Haze BKN013 OVC019 33.1 28 82% 25 30.04 1017.3
07 12:53 E 15 10.00 Overcast OVC016 33.1 25 72% 24 30.04 1017.3
07 11:53 E 13 10.00 Overcast OVC016 32 25 75% 23 30.04 1017.3
07 10:53 E 13 10.00 Overcast OVC014 30.9 25 79% 22 30.04 1017.4
07 09:53 E 13 8.00 Overcast OVC015 30.9 26.1 30.9 30 82% 22 30.04 1017.4
07 08:53 E 16 7.00 Light Snow OVC014 30 25 82% 19 30.04 1017.2
Date Time (akdt) Wind (mph) Vis. (mi.) Weather Sky Cond. Air Dwpt Max. Min. Relative Humidity Wind Chill (°F) Heat Index (°F) altimeter (in) sea level (mb) 1 hr 3 hr 6 hr
6 hour
Temperature (ºF) Pressure Precipitation (in)